createdAt,value
2023-01-17T00:01:56.449Z,96468.00
2023-01-17T00:07:16.642Z,96458.28
2023-01-17T00:12:22.895Z,96445.47
2023-01-17T00:17:26.075Z,96433.56
2023-01-17T00:22:48.841Z,96447.97
2023-01-17T00:27:50.433Z,96455.78
2023-01-17T00:32:52.377Z,96459.53
2023-01-17T00:38:11.151Z,96453.94
2023-01-17T00:43:33.407Z,96439.56
2023-01-17T00:48:54.591Z,96438.59
2023-01-17T00:54:15.364Z,96457.56
2023-01-17T00:59:36.359Z,96454.00
2023-01-17T01:04:56.778Z,96462.59
2023-01-17T01:10:17.028Z,96458.97
2023-01-17T01:15:37.031Z,96455.19
2023-01-17T01:20:57.234Z,96457.56
2023-01-17T01:26:17.546Z,96467.63
2023-01-17T01:31:37.776Z,96465.63
2023-01-17T01:36:39.461Z,96464.91
2023-01-17T01:41:41.065Z,96468.59
2023-01-17T01:46:42.730Z,96466.13
2023-01-17T01:51:51.049Z,96458.75
2023-01-17T01:56:57.591Z,96462.91
2023-01-17T02:01:59.524Z,96459.78
2023-01-17T02:07:10.427Z,96458.16
2023-01-17T02:12:12.922Z,96462.66
2023-01-17T02:17:43.077Z,96464.91
2023-01-17T02:23:18.252Z,96471.13
2023-01-17T02:28:35.107Z,96467.56
2023-01-17T02:34:01.351Z,96459.78
2023-01-17T02:39:09.725Z,96476.28
2023-01-17T02:44:16.804Z,96483.03
2023-01-17T02:49:21.600Z,96480.50
2023-01-17T02:55:01.585Z,96485.63
2023-01-17T03:00:19.110Z,96496.63
2023-01-17T03:05:26.050Z,96501.16
2023-01-17T03:10:29.477Z,96509.91
2023-01-17T03:15:31.458Z,96521.66
2023-01-17T03:20:33.078Z,96542.66
2023-01-17T03:25:34.717Z,96533.31
2023-01-17T03:30:36.333Z,96538.56
2023-01-17T03:35:37.975Z,96551.09
2023-01-17T03:40:39.568Z,96551.56
2023-01-17T03:45:41.215Z,96563.91
2023-01-17T03:50:42.830Z,96559.03
2023-01-17T03:55:47.744Z,96548.16
2023-01-17T04:00:49.413Z,96566.84
2023-01-17T04:05:51.035Z,96590.47
2023-01-17T04:10:52.844Z,96583.56
2023-01-17T04:15:54.651Z,96586.72
2023-01-17T04:20:56.307Z,96585.47
2023-01-17T04:25:57.929Z,96568.34
2023-01-17T04:31:00.158Z,96607.47
2023-01-17T04:36:01.816Z,96612.03
2023-01-17T04:41:03.569Z,96632.28
2023-01-17T04:46:10.054Z,96630.72
2023-01-17T04:51:12.080Z,96648.31
2023-01-17T04:56:13.684Z,96660.66
2023-01-17T05:01:15.549Z,96658.22
2023-01-17T05:06:17.296Z,96660.66
2023-01-17T05:11:18.991Z,96654.97
2023-01-17T05:16:20.792Z,96673.38
2023-01-17T05:21:22.629Z,96674.19
2023-01-17T05:26:24.313Z,96685.50
2023-01-17T05:31:26.022Z,96685.09
2023-01-17T05:36:27.829Z,96678.19
2023-01-17T05:41:29.467Z,96693.09
2023-01-17T05:46:31.129Z,96705.44
2023-01-17T05:51:33.165Z,96711.78
2023-01-17T05:56:34.793Z,96710.81
2023-01-17T06:01:36.391Z,96712.91
2023-01-17T06:06:38.004Z,96722.34
2023-01-17T06:11:39.657Z,96719.56
2023-01-17T06:16:41.402Z,96724.88
2023-01-17T06:21:42.989Z,96739.25
2023-01-17T06:26:44.663Z,96730.03
2023-01-17T06:31:46.539Z,96741.31
2023-01-17T06:36:48.146Z,96742.38
2023-01-17T06:41:49.754Z,96744.59
2023-01-17T06:46:51.404Z,96750.97
2023-01-17T06:51:53.024Z,96760.81
2023-01-17T06:56:54.704Z,96768.56
2023-01-17T07:01:56.477Z,96777.78
2023-01-17T07:06:58.103Z,96784.97
2023-01-17T07:12:02.010Z,96791.69
2023-01-17T07:17:04.396Z,96805.63
2023-01-17T07:22:06.063Z,96808.69
2023-01-17T07:27:07.710Z,96815.06
2023-01-17T07:32:10.972Z,96822.41
2023-01-17T07:37:15.039Z,96822.22
2023-01-17T07:42:16.877Z,96796.81
2023-01-17T07:47:20.150Z,96802.78
2023-01-17T07:52:21.836Z,96824.09
2023-01-17T07:57:23.737Z,96827.97
2023-01-17T08:02:25.442Z,96824.50
2023-01-17T08:07:27.130Z,96825.50
2023-01-17T08:12:29.636Z,96825.31
2023-01-17T08:17:31.270Z,96832.88
2023-01-17T08:22:32.977Z,96844.75
2023-01-17T08:27:36.246Z,96846.78
2023-01-17T08:32:40.859Z,96859.47
2023-01-17T08:37:42.520Z,96875.63
2023-01-17T08:42:44.313Z,96887.09
2023-01-17T08:47:45.969Z,96904.28
2023-01-17T08:52:49.060Z,96899.16
2023-01-17T08:57:50.655Z,96900.59
2023-01-17T09:02:53.233Z,96901.41
2023-01-17T09:07:56.555Z,96911.66
2023-01-17T09:12:58.204Z,96913.25
2023-01-17T09:18:01.364Z,96921.88
2023-01-17T09:23:04.007Z,96939.88
2023-01-17T09:28:05.680Z,96930.88
2023-01-17T09:33:07.315Z,96945.38
2023-01-17T09:38:09.213Z,96942.53
2023-01-17T09:43:46.747Z,96939.06
2023-01-17T09:48:52.350Z,96945.19
2023-01-17T09:53:54.983Z,96950.94
2023-01-17T09:59:15.377Z,96931.91
2023-01-17T10:04:58.643Z,96942.13
2023-01-17T10:10:18.215Z,96954.19
2023-01-17T10:15:37.192Z,96950.59
2023-01-17T10:21:03.161Z,96958.94
2023-01-17T10:26:22.280Z,96958.88
2023-01-17T10:31:31.111Z,96952.50
2023-01-17T10:36:39.624Z,96962.44
2023-01-17T10:41:47.787Z,96977.97
2023-01-17T10:46:57.378Z,96965.84
2023-01-17T10:52:21.303Z,96989.91
2023-01-17T10:57:25.726Z,96980.31
2023-01-17T11:02:36.658Z,96982.38
2023-01-17T11:07:40.001Z,96990.22
2023-01-17T11:12:45.864Z,96991.84
2023-01-17T11:17:53.001Z,97004.75
2023-01-17T11:23:14.017Z,97004.63
2023-01-17T11:28:30.871Z,96997.56
2023-01-17T11:33:49.256Z,96976.44
2023-01-17T11:39:03.015Z,96971.47
2023-01-17T11:44:26.002Z,96985.22
2023-01-17T11:49:29.298Z,96978.25
2023-01-17T11:54:39.078Z,96976.56
2023-01-17T11:59:44.965Z,96976.28
2023-01-17T12:05:08.485Z,96968.84
2023-01-17T12:10:17.936Z,96968.25
2023-01-17T12:15:22.414Z,96965.94
2023-01-17T12:20:48.659Z,96976.50
2023-01-17T12:26:10.320Z,96985.28
2023-01-17T12:31:22.846Z,96974.25
2023-01-17T12:36:45.927Z,96978.59
2023-01-17T12:42:18.895Z,96981.53
2023-01-17T12:47:22.050Z,96984.41
2023-01-17T12:52:46.874Z,96982.59
2023-01-17T12:57:56.763Z,96995.91
2023-01-17T13:03:27.340Z,97002.53
2023-01-17T13:08:41.457Z,96992.00
2023-01-17T13:13:43.525Z,96992.28
2023-01-17T13:18:47.466Z,96989.75
2023-01-17T13:24:04.066Z,96992.94
2023-01-17T13:29:26.900Z,97003.91
2023-01-17T13:34:31.486Z,97016.28
2023-01-17T13:39:38.908Z,97017.47
2023-01-17T13:44:40.552Z,97020.78
2023-01-17T13:49:49.570Z,97029.81
2023-01-17T13:54:52.333Z,97039.88
2023-01-17T13:59:55.772Z,97035.78
2023-01-17T14:05:17.510Z,97046.97
2023-01-17T14:10:45.249Z,97035.78
2023-01-17T14:15:49.944Z,97036.44
2023-01-17T14:21:07.086Z,97041.22
2023-01-17T14:26:27.959Z,97033.88
2023-01-17T14:31:29.681Z,97045.75
2023-01-17T14:36:33.399Z,97034.34
2023-01-17T14:41:35.068Z,97041.75
2023-01-17T14:46:36.709Z,97052.81
2023-01-17T14:51:39.018Z,97051.38
2023-01-17T14:56:40.628Z,97041.41
2023-01-17T15:01:48.062Z,97062.22
2023-01-17T15:06:59.879Z,97063.25
2023-01-17T15:12:02.685Z,97063.25
2023-01-17T15:17:30.637Z,97075.66
2023-01-17T15:22:33.103Z,97064.88
2023-01-17T15:27:34.846Z,97065.38
2023-01-17T15:32:37.997Z,97067.63
2023-01-17T15:37:40.061Z,97066.13
2023-01-17T15:42:44.042Z,97073.59
2023-01-17T15:47:46.340Z,97075.31
2023-01-17T15:52:55.817Z,97080.91
2023-01-17T15:57:57.623Z,97090.19
2023-01-17T16:02:59.756Z,97088.84
2023-01-17T16:08:26.418Z,97079.31
2023-01-17T16:13:33.693Z,97098.16
2023-01-17T16:18:35.419Z,97099.13
2023-01-17T16:23:37.030Z,97083.78
2023-01-17T16:28:39.050Z,97095.34
2023-01-17T16:33:42.146Z,97088.50
2023-01-17T16:38:45.566Z,97088.94
2023-01-17T16:44:01.199Z,97081.66
2023-01-17T16:49:02.874Z,97073.44
2023-01-17T16:54:04.517Z,97072.66
2023-01-17T16:59:06.191Z,97079.22
2023-01-17T17:04:07.833Z,97076.06
2023-01-17T17:09:09.455Z,97070.19
2023-01-17T17:14:11.094Z,97072.53
2023-01-17T17:19:12.709Z,97070.13
2023-01-17T17:24:15.843Z,97059.25
2023-01-17T17:29:17.582Z,97068.69
2023-01-17T17:34:19.300Z,97083.78
2023-01-17T17:39:20.933Z,97098.59
2023-01-17T17:44:22.536Z,97085.88
2023-01-17T17:49:24.374Z,97089.44
2023-01-17T17:54:27.434Z,97083.63
2023-01-17T17:59:29.943Z,97090.03
2023-01-17T18:04:31.658Z,97095.28
2023-01-17T18:09:33.403Z,97092.50
2023-01-17T18:14:35.077Z,97101.06
2023-01-17T18:19:36.709Z,97104.69
2023-01-17T18:24:38.323Z,97101.09
2023-01-17T18:29:40.022Z,97107.91
2023-01-17T18:34:42.387Z,97093.72
2023-01-17T18:39:43.985Z,97092.59
2023-01-17T18:44:45.615Z,97100.00
2023-01-17T18:49:47.353Z,97103.81
2023-01-17T18:54:49.127Z,97108.09
2023-01-17T18:59:50.807Z,97108.25
2023-01-17T19:04:52.413Z,97116.50
2023-01-17T19:09:54.002Z,97099.69
2023-01-17T19:14:55.595Z,97108.56
2023-01-17T19:19:57.271Z,97122.41
2023-01-17T19:24:58.885Z,97128.84
2023-01-17T19:30:00.569Z,97127.34
2023-01-17T19:35:02.192Z,97134.94
2023-01-17T19:40:04.364Z,97138.16
2023-01-17T19:45:07.477Z,97132.56
2023-01-17T19:50:12.249Z,97134.22
2023-01-17T19:55:13.907Z,97129.47
2023-01-17T20:00:17.898Z,97142.44
2023-01-17T20:05:19.734Z,97142.69
2023-01-17T20:10:21.381Z,97155.63
2023-01-17T20:15:26.555Z,97165.00
2023-01-17T20:20:32.454Z,97160.94
2023-01-17T20:25:34.080Z,97170.72
2023-01-17T20:30:35.673Z,97172.41
2023-01-17T20:35:37.272Z,97180.91
2023-01-17T20:40:39.010Z,97185.50
2023-01-17T20:45:40.628Z,97189.25
2023-01-17T20:50:42.336Z,97181.59
2023-01-17T20:55:44.062Z,97193.06
2023-01-17T21:00:45.688Z,97189.06
2023-01-17T21:05:47.282Z,97183.03
2023-01-17T21:10:49.660Z,97185.16
2023-01-17T21:15:52.459Z,97174.59
2023-01-17T21:20:54.087Z,97186.53
2023-01-17T21:25:57.141Z,97181.09
2023-01-17T21:30:59.214Z,97189.97
2023-01-17T21:36:10.440Z,97183.28
2023-01-17T21:41:12.026Z,97176.00
2023-01-17T21:46:13.947Z,97178.81
2023-01-17T21:51:16.147Z,97180.47
2023-01-17T21:56:36.447Z,97168.00
2023-01-17T22:01:38.223Z,97166.53
2023-01-17T22:06:39.885Z,97156.25
2023-01-17T22:11:41.484Z,97147.34
2023-01-17T22:16:43.125Z,97144.38
2023-01-17T22:21:44.781Z,97134.91
2023-01-17T22:26:46.366Z,97140.47
2023-01-17T22:31:47.977Z,97134.56
2023-01-17T22:36:49.636Z,97123.69
2023-01-17T22:41:51.287Z,97121.03
2023-01-17T22:46:53.096Z,97118.06
2023-01-17T22:51:54.688Z,97121.50
2023-01-17T22:56:56.295Z,97109.34
2023-01-17T23:01:57.896Z,97107.53
2023-01-17T23:06:59.504Z,97091.44
2023-01-17T23:12:01.236Z,97084.75
2023-01-17T23:17:22.344Z,97074.78
2023-01-17T23:22:29.971Z,97062.91
2023-01-17T23:27:53.599Z,97068.19
2023-01-17T23:32:58.715Z,97072.50
2023-01-17T23:38:19.379Z,97075.81
2023-01-17T23:43:23.923Z,97078.75
2023-01-17T23:48:29.160Z,97078.44
2023-01-17T23:53:30.982Z,97081.56
2023-01-17T23:58:33.224Z,97088.63
